createdAt,value
2022-11-03T00:00:34.495Z,11.01
2022-11-03T00:03:01.010Z,11.01
2022-11-03T00:05:46.182Z,11.00
2022-11-03T00:10:43.909Z,11.02
2022-11-03T00:13:10.332Z,11.02
2022-11-03T00:15:36.726Z,11.02
2022-11-03T00:18:03.192Z,11.01
2022-11-03T00:20:29.629Z,11.04
2022-11-03T00:22:56.071Z,11.07
2022-11-03T00:25:22.538Z,11.07
2022-11-03T00:27:54.539Z,11.06
2022-11-03T00:30:20.997Z,11.04
2022-11-03T00:32:47.458Z,11.04
2022-11-03T00:35:13.960Z,11.08
2022-11-03T00:37:40.347Z,11.05
2022-11-03T00:40:07.431Z,11.06
2022-11-03T00:42:35.083Z,11.08
2022-11-03T00:45:01.503Z,11.06
2022-11-03T00:47:27.954Z,11.08
2022-11-03T00:49:54.410Z,11.08
2022-11-03T00:52:20.835Z,11.06
2022-11-03T00:54:51.333Z,11.05
2022-11-03T00:57:21.570Z,11.04
2022-11-03T00:59:48.115Z,11.04
2022-11-03T01:02:14.655Z,11.02
2022-11-03T01:04:59.684Z,11.03
2022-11-03T01:07:26.048Z,11.02
2022-11-03T01:09:52.477Z,11.03
2022-11-03T01:12:19.353Z,11.03
2022-11-03T01:14:51.505Z,11.02
2022-11-03T01:17:26.832Z,11.02
2022-11-03T01:19:54.114Z,11.00
2022-11-03T01:22:22.187Z,10.96
2022-11-03T01:24:48.758Z,10.93
2022-11-03T01:27:18.042Z,10.93
2022-11-03T01:29:44.771Z,10.88
2022-11-03T01:32:12.021Z,10.88
2022-11-03T01:34:39.348Z,10.86
2022-11-03T01:37:05.890Z,10.86
2022-11-03T01:39:32.542Z,10.84
2022-11-03T01:41:58.988Z,10.81
2022-11-03T01:44:50.098Z,10.79
2022-11-03T01:47:27.991Z,10.75
2022-11-03T01:50:03.419Z,10.76
2022-11-03T01:52:48.443Z,10.75
2022-11-03T01:55:22.449Z,10.72
2022-11-03T01:58:07.280Z,10.71
2022-11-03T02:00:35.001Z,10.70
2022-11-03T02:03:02.196Z,10.71
2022-11-03T02:05:30.023Z,10.69
2022-11-03T02:08:03.761Z,10.69
2022-11-03T02:10:30.234Z,10.70
2022-11-03T02:12:57.315Z,10.70
2022-11-03T02:15:24.363Z,10.73
2022-11-03T02:17:54.772Z,10.72
2022-11-03T02:20:24.069Z,10.72
2022-11-03T02:23:12.465Z,10.71
2022-11-03T02:25:53.228Z,10.71
2022-11-03T02:28:22.932Z,10.69
2022-11-03T02:31:16.792Z,10.68
2022-11-03T02:34:03.558Z,10.70
2022-11-03T02:36:42.955Z,10.73
2022-11-03T02:39:16.246Z,10.73
2022-11-03T02:41:44.057Z,10.74
2022-11-03T02:44:19.160Z,10.76
2022-11-03T02:46:50.400Z,10.75
2022-11-03T02:49:16.795Z,10.75
2022-11-03T02:51:43.201Z,10.75
2022-11-03T02:54:27.386Z,10.75
2022-11-03T02:56:59.694Z,10.78
2022-11-03T02:59:31.423Z,10.80
2022-11-03T03:02:11.677Z,10.82
2022-11-03T03:04:46.910Z,10.83
2022-11-03T03:07:18.716Z,10.84
2022-11-03T03:09:53.739Z,10.84
2022-11-03T03:12:22.101Z,10.87
2022-11-03T03:14:51.092Z,10.85
2022-11-03T03:17:25.871Z,10.84
2022-11-03T03:19:55.237Z,10.85
2022-11-03T03:22:36.316Z,10.86
2022-11-03T03:25:15.246Z,10.84
2022-11-03T03:27:47.607Z,10.87
2022-11-03T03:30:14.870Z,10.84
2022-11-03T03:32:48.930Z,10.83
2022-11-03T03:35:20.370Z,10.81
2022-11-03T03:37:53.623Z,10.79
2022-11-03T03:40:28.603Z,10.80
2022-11-03T03:42:56.748Z,10.82
2022-11-03T03:45:25.921Z,10.82
2022-11-03T03:47:57.340Z,10.82
2022-11-03T03:50:27.086Z,10.84
2022-11-03T03:53:09.385Z,10.85
2022-11-03T03:55:45.252Z,10.85
2022-11-03T03:58:13.723Z,10.84
2022-11-03T04:00:41.300Z,10.84
2022-11-03T04:03:17.746Z,10.83
2022-11-03T04:05:44.769Z,10.83
2022-11-03T04:08:15.998Z,10.83
2022-11-03T04:11:05.831Z,10.82
2022-11-03T04:13:51.579Z,10.82
2022-11-03T04:16:36.322Z,10.83
2022-11-03T04:19:21.232Z,10.84
2022-11-03T04:22:06.292Z,10.83
2022-11-03T04:24:32.684Z,10.86
2022-11-03T04:27:05.555Z,10.88
2022-11-03T04:29:31.949Z,10.88
2022-11-03T04:31:58.459Z,10.91
2022-11-03T04:34:24.951Z,10.92
2022-11-03T04:36:51.346Z,10.94
2022-11-03T04:39:20.093Z,10.95
2022-11-03T04:41:46.824Z,10.96
2022-11-03T04:44:16.788Z,10.93
2022-11-03T04:46:45.443Z,10.93
2022-11-03T04:49:22.682Z,10.91
2022-11-03T04:51:49.888Z,10.88
2022-11-03T04:54:19.646Z,10.91
2022-11-03T04:56:46.047Z,10.92
2022-11-03T04:59:14.219Z,10.91
2022-11-03T05:01:41.205Z,10.95
2022-11-03T05:04:18.360Z,10.96
2022-11-03T05:06:51.338Z,10.94
2022-11-03T05:09:23.046Z,10.98
2022-11-03T05:11:49.621Z,11.00
2022-11-03T05:14:20.474Z,11.01
2022-11-03T05:16:48.512Z,11.01
2022-11-03T05:19:19.792Z,11.04
2022-11-03T05:21:50.047Z,11.05
2022-11-03T05:24:21.051Z,11.03
2022-11-03T05:26:48.984Z,11.04
2022-11-03T05:29:25.562Z,11.04
2022-11-03T05:31:53.911Z,11.02
2022-11-03T05:34:32.545Z,11.03
2022-11-03T05:37:26.786Z,11.02
2022-11-03T05:39:59.477Z,11.01
2022-11-03T05:42:34.198Z,11.02
2022-11-03T05:45:03.232Z,11.05
2022-11-03T05:47:37.728Z,11.06
2022-11-03T05:50:28.516Z,11.10
2022-11-03T05:52:59.822Z,11.10
2022-11-03T05:55:29.680Z,11.10
2022-11-03T05:58:01.533Z,11.10
2022-11-03T06:00:31.765Z,11.09
2022-11-03T06:02:59.136Z,11.08
2022-11-03T06:05:26.950Z,11.09
2022-11-03T06:07:55.956Z,11.08
2022-11-03T06:10:41.341Z,11.07
2022-11-03T06:13:16.256Z,11.06
2022-11-03T06:15:45.887Z,11.03
2022-11-03T06:18:19.656Z,11.05
2022-11-03T06:20:52.125Z,11.09
2022-11-03T06:23:20.678Z,11.09
2022-11-03T06:25:48.846Z,11.10
2022-11-03T06:28:20.749Z,11.10
2022-11-03T06:30:47.624Z,11.11
2022-11-03T06:33:27.845Z,11.13
2022-11-03T06:35:59.061Z,11.14
2022-11-03T06:38:29.627Z,11.13
2022-11-03T06:40:57.303Z,11.12
2022-11-03T06:43:37.932Z,11.17
2022-11-03T06:46:14.770Z,11.16
2022-11-03T06:48:41.231Z,11.13
2022-11-03T06:51:25.562Z,11.14
2022-11-03T06:53:54.126Z,11.13
2022-11-03T06:56:23.105Z,11.15
2022-11-03T06:58:52.505Z,11.13
2022-11-03T07:01:25.881Z,11.13
2022-11-03T07:03:59.085Z,11.12
2022-11-03T07:06:30.066Z,11.13
2022-11-03T07:08:59.759Z,11.14
2022-11-03T07:11:28.561Z,11.17
2022-11-03T07:14:17.872Z,11.17
2022-11-03T07:16:48.682Z,11.18
2022-11-03T07:19:38.122Z,11.21
2022-11-03T07:22:19.806Z,11.24
2022-11-03T07:24:48.613Z,11.27
2022-11-03T07:27:23.769Z,11.30
2022-11-03T07:29:52.732Z,11.33
2022-11-03T07:32:21.214Z,11.34
2022-11-03T07:34:49.029Z,11.38
2022-11-03T07:37:23.798Z,11.42
2022-11-03T07:39:51.227Z,11.46
2022-11-03T07:42:19.894Z,11.50
2022-11-03T07:44:47.067Z,11.55
2022-11-03T07:47:18.873Z,11.58
2022-11-03T07:49:45.647Z,11.62
2022-11-03T07:52:16.110Z,11.67
2022-11-03T07:54:42.867Z,11.69
2022-11-03T07:57:26.224Z,11.73
2022-11-03T07:59:56.760Z,11.73
2022-11-03T08:02:52.357Z,11.78
2022-11-03T08:07:46.153Z,11.85
2022-11-03T08:10:13.719Z,11.87
2022-11-03T08:12:40.175Z,11.86
2022-11-03T08:15:07.279Z,11.90
2022-11-03T08:17:33.699Z,11.91
2022-11-03T08:20:00.248Z,11.93
2022-11-03T08:22:26.679Z,11.92
2022-11-03T08:24:53.315Z,11.91
2022-11-03T08:27:19.932Z,11.89
2022-11-03T08:29:46.367Z,11.90
2022-11-03T08:32:12.803Z,11.93
2022-11-03T08:34:39.273Z,12.03
2022-11-03T08:37:05.759Z,12.00
2022-11-03T08:39:32.220Z,12.01
2022-11-03T08:41:58.654Z,12.06
2022-11-03T08:44:25.075Z,12.09
2022-11-03T08:46:51.479Z,12.12
2022-11-03T08:49:17.929Z,12.14
2022-11-03T08:51:45.049Z,12.17
2022-11-03T08:54:11.738Z,12.19
2022-11-03T08:56:38.163Z,12.23
2022-11-03T08:59:04.577Z,12.27
2022-11-03T09:01:31.088Z,12.32
2022-11-03T09:03:57.656Z,12.34
2022-11-03T09:06:24.201Z,12.40
2022-11-03T09:11:37.048Z,12.53
2022-11-03T09:14:03.929Z,12.58
2022-11-03T09:16:30.360Z,12.62
2022-11-03T09:18:56.776Z,12.70
2022-11-03T09:21:23.365Z,12.70
2022-11-03T09:23:49.994Z,12.73
2022-11-03T09:26:16.541Z,12.76
2022-11-03T09:28:43.026Z,12.79
2022-11-03T09:31:09.500Z,12.85
2022-11-03T09:33:35.935Z,12.89
2022-11-03T09:36:02.704Z,12.90
2022-11-03T09:38:29.297Z,12.91
2022-11-03T09:40:55.858Z,12.92
2022-11-03T09:43:22.354Z,12.96
2022-11-03T09:45:48.965Z,12.99
2022-11-03T09:48:15.643Z,13.02
2022-11-03T09:50:42.919Z,13.06
2022-11-03T09:53:11.608Z,13.07
2022-11-03T09:55:39.875Z,13.08
2022-11-03T09:58:17.884Z,13.08
2022-11-03T10:00:45.499Z,13.14
2022-11-03T10:03:13.987Z,13.15
2022-11-03T10:05:42.176Z,13.18
2022-11-03T10:08:22.706Z,13.20
2022-11-03T10:10:50.778Z,13.21
2022-11-03T10:13:42.322Z,13.23
2022-11-03T10:16:11.691Z,13.29
2022-11-03T10:18:38.270Z,13.31
2022-11-03T10:21:17.764Z,13.34
2022-11-03T10:23:44.894Z,13.36
2022-11-03T10:26:13.785Z,13.42
2022-11-03T10:28:40.449Z,13.49
2022-11-03T10:31:19.514Z,13.51
2022-11-03T10:33:54.673Z,13.52
2022-11-03T10:36:32.145Z,13.53
2022-11-03T10:38:59.450Z,13.62
2022-11-03T10:41:28.595Z,13.64
2022-11-03T10:44:19.919Z,13.69
2022-11-03T10:47:34.623Z,13.73
2022-11-03T10:50:18.903Z,13.79
2022-11-03T10:52:45.351Z,13.80
2022-11-03T10:55:11.775Z,13.82
2022-11-03T10:57:38.448Z,13.82
2022-11-03T11:00:05.959Z,13.85
2022-11-03T11:02:33.125Z,13.85
2022-11-03T11:05:02.197Z,13.87
2022-11-03T11:07:38.858Z,13.91
2022-11-03T11:10:12.072Z,13.92
2022-11-03T11:12:39.144Z,13.92
2022-11-03T11:15:36.693Z,13.92
2022-11-03T11:18:03.217Z,13.91
2022-11-03T11:20:33.889Z,13.93
2022-11-03T11:23:28.621Z,13.94
2022-11-03T11:26:10.455Z,13.94
2022-11-03T11:28:58.359Z,13.93
2022-11-03T11:31:32.516Z,13.90
2022-11-03T11:34:18.134Z,13.85
2022-11-03T11:36:47.376Z,13.84
2022-11-03T11:39:22.858Z,13.86
2022-11-03T11:42:13.293Z,13.92
2022-11-03T11:44:39.849Z,13.97
2022-11-03T11:47:32.762Z,14.00
2022-11-03T11:50:05.560Z,14.01
2022-11-03T11:53:07.644Z,13.99
2022-11-03T11:55:40.486Z,13.93
2022-11-03T11:58:17.308Z,13.90
2022-11-03T12:01:11.747Z,13.87
2022-11-03T12:03:43.718Z,13.85
2022-11-03T12:06:13.231Z,13.83
2022-11-03T12:08:40.184Z,13.82
2022-11-03T12:11:08.154Z,13.81
2022-11-03T12:13:47.357Z,13.79
2022-11-03T12:16:30.102Z,13.74
2022-11-03T12:18:56.973Z,13.74
2022-11-03T12:21:53.873Z,13.75
2022-11-03T12:24:55.915Z,13.81
2022-11-03T12:27:25.476Z,13.87
2022-11-03T12:29:53.145Z,13.92
2022-11-03T12:32:33.112Z,13.95
2022-11-03T12:35:05.389Z,13.98
2022-11-03T12:37:31.968Z,13.99
2022-11-03T12:39:58.392Z,13.99
2022-11-03T12:42:25.419Z,13.94
2022-11-03T12:44:52.988Z,13.88
2022-11-03T12:47:20.199Z,13.85
2022-11-03T12:49:46.766Z,13.83
2022-11-03T12:52:13.192Z,13.85
2022-11-03T12:54:39.755Z,13.85
2022-11-03T12:57:06.240Z,13.84
2022-11-03T12:59:32.682Z,13.82
2022-11-03T13:01:59.276Z,13.81
2022-11-03T13:04:25.864Z,13.78
2022-11-03T13:06:52.303Z,13.73
2022-11-03T13:09:18.718Z,13.71
2022-11-03T13:12:03.903Z,13.70
2022-11-03T13:14:30.430Z,13.72
2022-11-03T13:16:56.821Z,13.77
2022-11-03T13:19:23.314Z,13.77
2022-11-03T13:21:49.763Z,13.77
2022-11-03T13:24:16.182Z,13.79
2022-11-03T13:26:42.601Z,13.79
2022-11-03T13:29:09.089Z,13.82
2022-11-03T13:31:35.743Z,13.83
2022-11-03T13:34:02.349Z,13.84
2022-11-03T13:36:28.824Z,13.85
2022-11-03T13:38:55.260Z,13.85
2022-11-03T13:41:21.738Z,13.84
2022-11-03T13:43:48.202Z,13.85
2022-11-03T13:46:14.608Z,13.84
2022-11-03T13:51:27.455Z,13.77
2022-11-03T13:59:27.903Z,13.70
2022-11-03T14:04:41.747Z,13.65
2022-11-03T14:07:08.656Z,13.64
2022-11-03T14:12:20.250Z,13.63
2022-11-03T14:14:46.658Z,13.60
2022-11-03T14:17:19.279Z,13.57
2022-11-03T14:19:51.824Z,13.56
2022-11-03T14:22:23.417Z,13.53
2022-11-03T14:24:50.903Z,13.52
2022-11-03T14:27:18.974Z,13.50
2022-11-03T14:29:49.550Z,13.47
2022-11-03T14:32:17.533Z,13.47
2022-11-03T14:34:44.440Z,13.43
2022-11-03T14:37:11.703Z,13.41
2022-11-03T14:39:38.799Z,13.36
2022-11-03T14:42:07.899Z,13.31
2022-11-03T14:44:36.619Z,13.27
2022-11-03T14:47:05.534Z,13.19
2022-11-03T14:49:34.162Z,13.14
2022-11-03T14:52:02.064Z,13.08
2022-11-03T14:54:30.464Z,13.06
2022-11-03T14:56:57.557Z,13.01
2022-11-03T14:59:24.095Z,13.00
2022-11-03T15:01:51.886Z,12.99
2022-11-03T15:04:18.570Z,12.97
2022-11-03T15:06:45.447Z,12.93
2022-11-03T15:09:14.757Z,12.90
2022-11-03T15:11:42.685Z,12.82
2022-11-03T15:14:09.935Z,12.67
2022-11-03T15:16:36.869Z,12.59
2022-11-03T15:19:06.795Z,12.52
2022-11-03T15:21:33.654Z,12.42
2022-11-03T15:26:46.699Z,12.27
2022-11-03T15:29:13.181Z,12.24
2022-11-03T15:31:44.507Z,12.21
2022-11-03T15:34:13.844Z,12.14
2022-11-03T15:36:40.254Z,12.12
2022-11-03T15:39:06.668Z,12.11
2022-11-03T15:41:33.129Z,12.08
2022-11-03T15:43:59.625Z,12.05
2022-11-03T15:46:26.182Z,12.08
2022-11-03T15:48:54.451Z,12.10
2022-11-03T15:51:21.064Z,12.10
2022-11-03T15:53:47.559Z,12.05
2022-11-03T15:56:13.978Z,12.01
2022-11-03T15:58:40.416Z,12.00
2022-11-03T16:01:07.025Z,12.00
2022-11-03T16:03:33.618Z,11.96
2022-11-03T16:06:00.061Z,11.93
2022-11-03T16:08:26.708Z,11.93
2022-11-03T16:10:57.571Z,11.93
2022-11-03T16:13:24.882Z,11.94
2022-11-03T16:15:51.745Z,11.91
2022-11-03T16:18:18.289Z,11.85
2022-11-03T16:20:44.862Z,11.84
2022-11-03T16:23:11.349Z,11.85
2022-11-03T16:25:38.073Z,11.81
2022-11-03T16:28:04.931Z,11.80
2022-11-03T16:30:31.699Z,11.80
2022-11-03T16:32:58.102Z,11.80
2022-11-03T16:35:25.747Z,11.79
2022-11-03T16:37:52.246Z,11.77
2022-11-03T16:40:19.892Z,11.75
2022-11-03T16:42:47.131Z,11.74
2022-11-03T16:45:19.122Z,11.72
2022-11-03T16:47:49.865Z,11.71
2022-11-03T16:50:17.391Z,11.68
2022-11-03T16:52:47.288Z,11.67
2022-11-03T16:55:15.409Z,11.67
2022-11-03T16:57:42.430Z,11.68
2022-11-03T17:00:12.808Z,11.68
2022-11-03T17:02:39.527Z,11.67
2022-11-03T17:05:07.005Z,11.67
2022-11-03T17:07:33.488Z,11.68
2022-11-03T17:09:59.939Z,11.67
2022-11-03T17:12:26.395Z,11.67
2022-11-03T17:14:55.747Z,11.67
2022-11-03T17:17:23.936Z,11.69
2022-11-03T17:19:51.063Z,11.67
2022-11-03T17:22:17.778Z,11.69
2022-11-03T17:24:44.238Z,11.70
2022-11-03T17:27:22.815Z,11.70
2022-11-03T17:29:55.880Z,11.68
2022-11-03T17:32:47.211Z,11.69
2022-11-03T17:35:21.235Z,11.68
2022-11-03T17:37:49.246Z,11.71
2022-11-03T17:40:26.018Z,11.70
2022-11-03T17:42:52.914Z,11.69
2022-11-03T17:45:21.530Z,11.69
2022-11-03T17:47:49.568Z,11.70
2022-11-03T17:50:21.186Z,11.70
2022-11-03T17:52:49.667Z,11.71
2022-11-03T17:55:18.015Z,11.70
2022-11-03T17:57:45.441Z,11.72
2022-11-03T18:00:17.080Z,11.72
2022-11-03T18:02:44.402Z,11.72
2022-11-03T18:05:22.569Z,11.72
2022-11-03T18:07:50.424Z,11.73
2022-11-03T18:10:16.935Z,11.73
2022-11-03T18:13:05.311Z,11.75
2022-11-03T18:15:35.359Z,11.76
2022-11-03T18:18:02.693Z,11.77
2022-11-03T18:20:30.380Z,11.74
2022-11-03T18:23:12.321Z,11.72
2022-11-03T18:25:38.731Z,11.73
2022-11-03T18:28:05.346Z,11.72
2022-11-03T18:30:31.978Z,11.70
2022-11-03T18:32:58.553Z,11.71
2022-11-03T18:35:28.306Z,11.70
2022-11-03T18:37:56.305Z,11.71
2022-11-03T18:40:22.806Z,11.72
2022-11-03T18:42:49.262Z,11.72
2022-11-03T18:45:17.715Z,11.74
2022-11-03T18:47:44.720Z,11.73
2022-11-03T18:50:17.350Z,11.73
2022-11-03T18:52:47.648Z,11.72
2022-11-03T18:55:16.046Z,11.72
2022-11-03T18:57:43.465Z,11.72
2022-11-03T19:00:19.755Z,11.74
2022-11-03T19:02:47.443Z,11.74
2022-11-03T19:05:15.465Z,11.74
2022-11-03T19:07:44.022Z,11.75
2022-11-03T19:10:14.731Z,11.73
2022-11-03T19:12:43.758Z,11.72
2022-11-03T19:15:19.418Z,11.73
2022-11-03T19:17:48.518Z,11.72
2022-11-03T19:20:15.906Z,11.69
2022-11-03T19:22:42.345Z,11.69
2022-11-03T19:25:09.103Z,11.68
2022-11-03T19:27:38.300Z,11.67
2022-11-03T19:30:05.638Z,11.67
2022-11-03T19:32:40.593Z,11.68
2022-11-03T19:35:16.107Z,11.67
2022-11-03T19:37:43.342Z,11.64
2022-11-03T19:40:18.751Z,11.64
2022-11-03T19:42:45.478Z,11.63
2022-11-03T19:45:17.397Z,11.60
2022-11-03T19:50:49.560Z,11.60
2022-11-03T19:53:22.368Z,11.58
2022-11-03T19:55:49.553Z,11.56
2022-11-03T19:58:24.754Z,11.55
2022-11-03T20:00:52.263Z,11.55
2022-11-03T20:03:19.588Z,11.56
2022-11-03T20:05:49.506Z,11.54
2022-11-03T20:08:21.365Z,11.56
2022-11-03T20:10:48.276Z,11.53
2022-11-03T20:13:23.368Z,11.53
2022-11-03T20:15:51.860Z,11.53
2022-11-03T20:18:20.103Z,11.52
2022-11-03T20:20:48.323Z,11.53
2022-11-03T20:23:31.318Z,11.54
2022-11-03T20:25:58.444Z,11.57
2022-11-03T20:28:28.319Z,11.56
2022-11-03T20:30:55.706Z,11.57
2022-11-03T20:33:24.249Z,11.57
2022-11-03T20:35:53.468Z,11.55
2022-11-03T20:38:21.073Z,11.55
2022-11-03T20:40:51.244Z,11.55
2022-11-03T20:43:43.022Z,11.54
2022-11-03T20:46:26.188Z,11.54
2022-11-03T20:48:55.197Z,11.53
2022-11-03T20:51:25.244Z,11.54
2022-11-03T20:53:52.615Z,11.53
2022-11-03T20:56:23.019Z,11.56
2022-11-03T20:58:49.860Z,11.54
2022-11-03T21:01:24.558Z,11.55
2022-11-03T21:03:59.369Z,11.55
2022-11-03T21:06:32.086Z,11.54
2022-11-03T21:08:58.875Z,11.55
2022-11-03T21:11:28.037Z,11.54
2022-11-03T21:13:56.341Z,11.57
2022-11-03T21:16:43.512Z,11.57
2022-11-03T21:19:43.432Z,11.57
2022-11-03T21:22:30.751Z,11.57
2022-11-03T21:24:59.233Z,11.56
2022-11-03T21:27:25.664Z,11.56
2022-11-03T21:29:59.263Z,11.56
2022-11-03T21:32:26.322Z,11.56
2022-11-03T21:34:52.771Z,11.55
2022-11-03T21:37:19.462Z,11.56
2022-11-03T21:39:46.076Z,11.58
2022-11-03T21:42:53.027Z,11.57
2022-11-03T21:45:20.275Z,11.58
2022-11-03T21:48:10.070Z,11.59
2022-11-03T21:50:38.389Z,11.58
2022-11-03T21:53:05.020Z,11.58
2022-11-03T21:55:31.539Z,11.57
2022-11-03T21:57:58.013Z,11.59
2022-11-03T22:00:24.439Z,11.58
2022-11-03T22:02:50.831Z,11.58
2022-11-03T22:05:17.317Z,11.60
2022-11-03T22:07:43.757Z,11.59
2022-11-03T22:10:10.247Z,11.60
2022-11-03T22:12:36.667Z,11.59
2022-11-03T22:15:22.561Z,11.60
2022-11-03T22:17:48.987Z,11.61
2022-11-03T22:20:34.502Z,11.61
2022-11-03T22:23:19.753Z,11.62
2022-11-03T22:26:07.574Z,11.63
2022-11-03T22:28:33.990Z,11.61
2022-11-03T22:31:22.307Z,11.63
2022-11-03T22:34:07.053Z,11.62
2022-11-03T22:36:33.475Z,11.58
2022-11-03T22:39:18.482Z,11.59
2022-11-03T22:42:06.359Z,11.57
2022-11-03T22:44:51.430Z,11.52
2022-11-03T22:47:18.860Z,11.38
2022-11-03T22:49:45.525Z,11.32
2022-11-03T22:52:12.036Z,11.31
2022-11-03T22:54:38.479Z,11.26
2022-11-03T22:57:04.893Z,11.21
2022-11-03T22:59:31.289Z,11.15
2022-11-03T23:01:57.806Z,11.10
2022-11-03T23:04:24.769Z,11.11
2022-11-03T23:06:51.337Z,11.07
2022-11-03T23:09:17.737Z,10.99
2022-11-03T23:11:44.141Z,11.01
2022-11-03T23:14:11.468Z,11.02
2022-11-03T23:16:42.910Z,10.97
2022-11-03T23:19:30.935Z,10.93
2022-11-03T23:21:57.457Z,10.92
2022-11-03T23:24:45.490Z,10.97
2022-11-03T23:27:12.990Z,10.96
2022-11-03T23:29:39.818Z,10.91
2022-11-03T23:32:06.515Z,10.94
2022-11-03T23:34:35.036Z,10.91
2022-11-03T23:37:02.158Z,10.87
2022-11-03T23:39:28.608Z,10.79
2022-11-03T23:41:54.983Z,10.80
2022-11-03T23:44:21.390Z,10.81
2022-11-03T23:47:06.286Z,10.78
2022-11-03T23:49:32.713Z,10.78
2022-11-03T23:51:59.472Z,10.76
2022-11-03T23:54:27.152Z,10.76
2022-11-03T23:57:12.210Z,10.68
2022-11-03T23:59:38.788Z,10.69
